createdAt,value
2018-05-18T00:00:16.194Z,0.00
2018-05-18T00:01:16.118Z,0.00
2018-05-18T00:02:16.044Z,0.00
2018-05-18T00:03:15.964Z,0.00
2018-05-18T00:04:15.888Z,0.00
2018-05-18T00:05:15.819Z,0.00
2018-05-18T00:06:15.731Z,0.00
2018-05-18T00:07:15.661Z,0.00
2018-05-18T00:08:15.577Z,0.00
2018-05-18T00:09:15.503Z,0.00
2018-05-18T00:10:15.456Z,0.00
2018-05-18T00:11:15.346Z,0.00
2018-05-18T00:12:15.271Z,0.00
2018-05-18T00:13:15.195Z,0.00
2018-05-18T00:14:15.114Z,0.00
2018-05-18T00:15:15.039Z,0.00
2018-05-18T00:16:14.967Z,0.00
2018-05-18T00:17:14.883Z,0.00
2018-05-18T00:18:14.819Z,0.00
2018-05-18T00:19:14.734Z,0.00
2018-05-18T00:20:14.655Z,0.00
2018-05-18T00:21:14.578Z,0.00
2018-05-18T00:22:14.500Z,0.00
2018-05-18T00:23:14.424Z,0.00
2018-05-18T00:24:14.352Z,0.00
2018-05-18T00:25:14.269Z,0.00
2018-05-18T00:26:14.192Z,0.00
2018-05-18T00:27:14.116Z,0.00
2018-05-18T00:28:14.038Z,0.00
2018-05-18T00:29:13.964Z,0.00
2018-05-18T00:30:13.882Z,0.00
2018-05-18T00:31:13.807Z,0.00
2018-05-18T00:32:13.730Z,0.00
2018-05-18T00:33:13.652Z,0.00
2018-05-18T00:34:13.593Z,0.00
2018-05-18T00:35:13.503Z,0.00
2018-05-18T00:36:13.421Z,0.00
2018-05-18T00:37:13.349Z,0.00
2018-05-18T00:38:13.267Z,0.00
2018-05-18T00:39:13.192Z,0.00
2018-05-18T00:40:13.124Z,0.00
2018-05-18T00:41:13.047Z,0.00
2018-05-18T00:42:12.961Z,0.00
2018-05-18T00:43:12.883Z,0.00
2018-05-18T00:44:12.805Z,0.00
2018-05-18T00:45:12.746Z,0.00
2018-05-18T00:46:12.650Z,0.00
2018-05-18T00:47:12.572Z,0.00
2018-05-18T00:48:12.496Z,0.00
2018-05-18T00:49:12.419Z,0.00
2018-05-18T00:50:12.435Z,0.00
2018-05-18T00:51:12.264Z,0.00
2018-05-18T00:52:12.191Z,0.00
2018-05-18T00:53:12.117Z,0.00
2018-05-18T00:54:12.033Z,0.00
2018-05-18T00:55:11.957Z,0.00
2018-05-18T00:56:11.884Z,0.00
2018-05-18T00:57:11.805Z,0.00
2018-05-18T00:58:11.727Z,0.00
2018-05-18T00:59:11.655Z,0.00
2018-05-18T01:00:11.582Z,0.00
2018-05-18T01:01:11.497Z,0.00
2018-05-18T01:02:11.420Z,0.00
2018-05-18T01:03:11.351Z,0.00
2018-05-18T01:04:11.265Z,0.00
2018-05-18T01:05:11.193Z,0.00
2018-05-18T01:06:11.108Z,0.00
2018-05-18T01:07:11.035Z,0.00
2018-05-18T01:08:10.956Z,0.00
2018-05-18T01:09:10.880Z,0.00
2018-05-18T01:10:10.798Z,0.00
2018-05-18T01:11:10.725Z,0.00
2018-05-18T01:12:10.649Z,0.00
2018-05-18T01:13:10.593Z,0.00
2018-05-18T01:14:10.492Z,0.00
2018-05-18T01:15:10.416Z,0.00
2018-05-18T01:16:10.339Z,0.00
2018-05-18T01:17:10.261Z,0.00
2018-05-18T01:18:10.186Z,0.00
2018-05-18T01:19:10.111Z,0.00
2018-05-18T01:20:10.034Z,0.00
2018-05-18T01:21:09.951Z,0.00
2018-05-18T01:22:09.878Z,0.00
2018-05-18T01:23:09.797Z,0.00
2018-05-18T01:24:09.721Z,0.00
2018-05-18T01:25:09.648Z,0.00
2018-05-18T01:26:09.565Z,0.00
2018-05-18T01:27:09.492Z,0.00
2018-05-18T01:28:09.413Z,0.00
2018-05-18T01:29:09.334Z,0.00
2018-05-18T01:30:09.261Z,0.00
2018-05-18T01:31:09.181Z,0.00
2018-05-18T01:32:09.104Z,0.00
2018-05-18T01:33:09.028Z,0.00
2018-05-18T01:34:08.951Z,0.00
2018-05-18T01:35:08.870Z,0.00
2018-05-18T01:36:08.793Z,0.00
2018-05-18T01:37:08.719Z,0.00
2018-05-18T01:38:08.643Z,0.00
2018-05-18T01:39:08.561Z,0.00
2018-05-18T01:40:08.485Z,0.00
2018-05-18T01:41:08.412Z,0.00
2018-05-18T01:42:08.330Z,0.00
2018-05-18T01:43:08.253Z,0.00
2018-05-18T01:44:08.178Z,0.00
2018-05-18T01:45:08.100Z,0.00
2018-05-18T01:46:08.022Z,0.00
2018-05-18T01:47:07.944Z,0.00
2018-05-18T01:48:07.895Z,0.00
2018-05-18T01:49:07.789Z,0.00
2018-05-18T01:50:07.711Z,0.00
2018-05-18T01:51:07.634Z,0.00
2018-05-18T01:52:07.576Z,0.00
2018-05-18T01:53:07.525Z,0.00
2018-05-18T01:54:07.402Z,0.00
2018-05-18T01:55:07.327Z,0.00
2018-05-18T01:56:07.254Z,0.00
2018-05-18T01:57:07.190Z,0.00
2018-05-18T01:58:07.095Z,0.00
2018-05-18T01:59:07.017Z,0.00
2018-05-18T02:00:06.938Z,0.00
2018-05-18T02:01:06.863Z,0.00
2018-05-18T02:02:06.785Z,0.00
2018-05-18T02:03:06.714Z,0.00
2018-05-18T02:04:06.629Z,0.00
2018-05-18T02:05:06.554Z,0.00
2018-05-18T02:06:06.480Z,0.00
2018-05-18T02:07:06.397Z,0.00
2018-05-18T02:08:06.321Z,0.00
2018-05-18T02:09:06.257Z,0.00
2018-05-18T02:10:06.166Z,0.00
2018-05-18T02:11:06.099Z,0.00
2018-05-18T02:12:06.009Z,0.00
2018-05-18T02:13:05.935Z,0.00
2018-05-18T02:14:05.862Z,0.00
2018-05-18T02:15:05.780Z,0.00
2018-05-18T02:16:05.720Z,0.00
2018-05-18T02:17:05.625Z,0.00
2018-05-18T02:18:05.547Z,0.00
2018-05-18T02:19:05.471Z,0.00
2018-05-18T02:20:05.429Z,0.00
2018-05-18T02:21:05.324Z,0.00
2018-05-18T02:22:05.237Z,0.00
2018-05-18T02:23:05.160Z,0.00
2018-05-18T02:24:05.084Z,0.00
2018-05-18T02:25:05.012Z,0.00
2018-05-18T02:26:04.928Z,0.00
2018-05-18T02:27:04.850Z,0.00
2018-05-18T02:28:04.779Z,0.00
2018-05-18T02:29:04.696Z,0.00
2018-05-18T02:30:04.619Z,0.00
2018-05-18T02:31:04.540Z,0.00
2018-05-18T02:32:04.465Z,0.00
2018-05-18T02:33:04.385Z,0.00
2018-05-18T02:34:04.326Z,0.00
2018-05-18T02:35:04.234Z,0.00
2018-05-18T02:36:04.158Z,0.00
2018-05-18T02:37:04.095Z,0.00
2018-05-18T02:38:03.998Z,0.00
2018-05-18T02:39:03.921Z,0.00
2018-05-18T02:40:03.846Z,0.00
2018-05-18T02:41:03.769Z,0.00
2018-05-18T02:42:03.690Z,0.00
2018-05-18T02:43:03.629Z,0.00
2018-05-18T02:44:03.543Z,0.00
2018-05-18T02:45:03.473Z,0.00
2018-05-18T02:46:03.378Z,0.00
2018-05-18T02:47:03.306Z,0.00
2018-05-18T02:48:03.224Z,0.00
2018-05-18T02:49:03.148Z,0.00
2018-05-18T02:50:03.068Z,0.00
2018-05-18T02:51:02.992Z,0.00
2018-05-18T02:52:02.913Z,0.00
2018-05-18T02:53:02.855Z,0.00
2018-05-18T02:54:02.759Z,0.00
2018-05-18T02:55:02.693Z,0.00
2018-05-18T02:56:02.606Z,0.00
2018-05-18T02:57:02.531Z,0.00
2018-05-18T02:58:02.458Z,0.00
2018-05-18T02:59:02.374Z,0.00
2018-05-18T03:00:02.311Z,4.00
2018-05-18T03:01:02.224Z,4.00
2018-05-18T03:02:02.137Z,0.00
2018-05-18T03:03:02.059Z,0.00
2018-05-18T03:04:01.984Z,4.00
2018-05-18T03:05:01.907Z,4.00
2018-05-18T03:06:01.837Z,4.00
2018-05-18T03:07:01.765Z,4.00
2018-05-18T03:08:01.672Z,4.00
2018-05-18T03:09:01.603Z,8.00
2018-05-18T03:10:01.517Z,8.00
2018-05-18T03:11:01.443Z,4.00
2018-05-18T03:12:01.365Z,8.00
2018-05-18T03:13:01.305Z,12.00
2018-05-18T03:14:01.206Z,12.00
2018-05-18T03:15:01.132Z,12.00
2018-05-18T03:16:01.051Z,16.00
2018-05-18T03:17:00.972Z,16.00
2018-05-18T03:18:00.894Z,16.00
2018-05-18T03:19:00.819Z,20.00
2018-05-18T03:20:00.741Z,20.00
2018-05-18T03:21:00.721Z,24.00
2018-05-18T03:22:00.589Z,24.00
2018-05-18T03:23:00.505Z,28.00
2018-05-18T03:24:00.429Z,32.00
2018-05-18T03:25:00.351Z,36.00
2018-05-18T03:26:00.270Z,36.00
2018-05-18T03:27:00.193Z,36.00
2018-05-18T03:28:00.116Z,40.00
2018-05-18T03:29:00.040Z,44.00
2018-05-18T03:30:00.037Z,48.00
2018-05-18T03:30:59.890Z,52.00
2018-05-18T03:31:59.806Z,56.00
2018-05-18T03:32:59.730Z,60.00
2018-05-18T03:33:59.648Z,64.00
2018-05-18T03:34:59.582Z,68.00
2018-05-18T03:35:59.507Z,72.00
2018-05-18T03:36:59.416Z,76.00
2018-05-18T03:37:59.338Z,84.00
2018-05-18T03:38:59.264Z,88.00
2018-05-18T03:39:59.204Z,96.00
2018-05-18T03:40:59.123Z,100.00
2018-05-18T03:41:59.026Z,108.00
2018-05-18T03:42:58.946Z,112.00
2018-05-18T03:43:58.875Z,116.00
2018-05-18T03:44:58.791Z,124.00
2018-05-18T03:45:58.716Z,132.00
2018-05-18T03:46:58.656Z,136.00
2018-05-18T03:47:58.574Z,144.00
2018-05-18T03:48:58.484Z,152.00
2018-05-18T03:49:58.402Z,160.00
2018-05-18T03:50:58.322Z,164.00
2018-05-18T03:51:58.248Z,168.00
2018-05-18T03:52:58.169Z,172.00
2018-05-18T03:53:58.095Z,184.00
2018-05-18T03:54:58.015Z,188.00
2018-05-18T03:55:57.934Z,196.00
2018-05-18T03:56:57.857Z,208.00
2018-05-18T03:57:57.779Z,216.00
2018-05-18T03:58:57.712Z,220.00
2018-05-18T03:59:57.627Z,228.00
2018-05-18T04:00:57.542Z,232.00
2018-05-18T04:01:57.465Z,240.00
2018-05-18T04:02:57.389Z,244.00
2018-05-18T04:03:57.311Z,256.00
2018-05-18T04:04:57.234Z,260.00
2018-05-18T04:05:57.153Z,268.00
2018-05-18T04:06:57.077Z,280.00
2018-05-18T04:07:57.000Z,288.00
2018-05-18T04:08:56.923Z,292.00
2018-05-18T04:09:56.841Z,300.00
2018-05-18T04:10:56.763Z,304.00
2018-05-18T04:11:56.688Z,316.00
2018-05-18T04:12:56.617Z,328.00
2018-05-18T04:13:56.536Z,336.00
2018-05-18T04:14:56.486Z,352.00
2018-05-18T04:15:56.388Z,360.00
2018-05-18T04:16:56.299Z,372.00
2018-05-18T04:17:56.227Z,384.00
2018-05-18T04:18:56.142Z,400.00
2018-05-18T04:19:56.071Z,416.00
2018-05-18T04:20:55.988Z,436.00
2018-05-18T04:21:55.912Z,444.00
2018-05-18T04:22:55.831Z,460.00
2018-05-18T04:23:55.755Z,472.00
2018-05-18T04:24:55.677Z,484.00
2018-05-18T04:25:55.604Z,496.00
2018-05-18T04:26:55.526Z,508.00
2018-05-18T04:27:55.457Z,516.00
2018-05-18T04:28:55.368Z,512.00
2018-05-18T04:29:55.288Z,520.00
2018-05-18T04:30:55.213Z,524.00
2018-05-18T04:31:55.133Z,528.00
2018-05-18T04:32:55.072Z,532.00
2018-05-18T04:33:54.980Z,540.00
2018-05-18T04:34:54.903Z,544.00
2018-05-18T04:35:54.830Z,548.00
2018-05-18T04:36:54.750Z,552.00
2018-05-18T04:37:54.672Z,560.00
2018-05-18T04:38:54.589Z,572.00
2018-05-18T04:39:54.514Z,588.00
2018-05-18T04:40:54.435Z,600.00
2018-05-18T04:41:54.358Z,608.00
2018-05-18T04:42:54.282Z,616.00
2018-05-18T04:43:54.203Z,616.00
2018-05-18T04:44:54.134Z,620.00
2018-05-18T04:45:54.045Z,620.00
2018-05-18T04:46:53.969Z,616.00
2018-05-18T04:47:53.892Z,616.00
2018-05-18T04:48:53.817Z,616.00
2018-05-18T04:51:36.328Z,620.00
2018-05-18T04:52:36.230Z,624.00
2018-05-18T04:53:36.127Z,616.00
2018-05-18T04:54:36.047Z,612.00
2018-05-18T04:55:35.989Z,604.00
2018-05-18T04:56:35.891Z,592.00
2018-05-18T04:57:35.875Z,592.00
2018-05-18T04:58:35.748Z,588.00
2018-05-18T04:59:35.659Z,592.00
2018-05-18T05:00:35.581Z,592.00
2018-05-18T05:01:35.504Z,600.00
2018-05-18T05:02:35.428Z,604.00
2018-05-18T05:03:35.351Z,608.00
2018-05-18T05:04:35.272Z,612.00
2018-05-18T05:05:35.289Z,612.00
2018-05-18T05:06:35.116Z,612.00
2018-05-18T05:07:35.047Z,616.00
2018-05-18T05:08:34.959Z,624.00
2018-05-18T05:09:34.904Z,628.00
2018-05-18T05:10:34.811Z,640.00
2018-05-18T05:11:34.727Z,644.00
2018-05-18T05:12:34.665Z,644.00
2018-05-18T05:13:34.571Z,652.00
2018-05-18T05:14:34.494Z,664.00
2018-05-18T05:15:34.419Z,672.00
2018-05-18T05:16:34.366Z,676.00
2018-05-18T05:17:34.289Z,684.00
2018-05-18T05:18:34.183Z,684.00
2018-05-18T05:19:34.112Z,688.00
2018-05-18T05:20:34.030Z,696.00
2018-05-18T05:21:33.951Z,700.00
2018-05-18T05:22:33.873Z,700.00
2018-05-18T05:23:33.823Z,708.00
2018-05-18T05:24:33.721Z,708.00
2018-05-18T05:25:33.641Z,716.00
2018-05-18T05:26:33.620Z,720.00
2018-05-18T05:27:33.484Z,728.00
2018-05-18T05:28:33.412Z,736.00
2018-05-18T05:29:33.331Z,744.00
2018-05-18T05:30:33.338Z,752.00
2018-05-18T05:31:33.191Z,760.00
2018-05-18T05:32:33.098Z,772.00
2018-05-18T05:33:33.021Z,780.00
2018-05-18T05:34:32.966Z,788.00
2018-05-18T05:35:32.865Z,792.00
2018-05-18T05:36:32.818Z,800.00
2018-05-18T05:37:32.711Z,812.00
2018-05-18T05:38:32.637Z,820.00
2018-05-18T05:39:32.556Z,824.00
2018-05-18T05:40:32.491Z,832.00
2018-05-18T05:41:32.397Z,828.00
2018-05-18T05:42:32.320Z,832.00
2018-05-18T05:43:32.241Z,832.00
2018-05-18T05:44:32.170Z,840.00
2018-05-18T05:45:32.087Z,840.00
2018-05-18T05:46:32.009Z,848.00
2018-05-18T05:47:31.931Z,852.00
2018-05-18T05:48:31.854Z,856.00
2018-05-18T05:49:31.778Z,856.00
2018-05-18T05:50:31.698Z,860.00
2018-05-18T05:51:31.620Z,860.00
2018-05-18T05:52:31.546Z,860.00
2018-05-18T05:53:31.467Z,864.00
2018-05-18T05:54:31.390Z,868.00
2018-05-18T05:55:31.318Z,876.00
2018-05-18T05:56:31.233Z,888.00
2018-05-18T05:57:31.171Z,900.00
2018-05-18T05:58:31.141Z,912.00
2018-05-18T05:59:30.998Z,920.00
2018-05-18T06:00:30.923Z,928.00
2018-05-18T06:01:30.847Z,936.00
2018-05-18T06:02:30.768Z,944.00
2018-05-18T06:03:30.689Z,948.00
2018-05-18T06:04:30.621Z,944.00
2018-05-18T06:05:30.534Z,948.00
2018-05-18T06:06:30.458Z,952.00
2018-05-18T06:07:30.378Z,960.00
2018-05-18T06:08:30.301Z,968.00
2018-05-18T06:09:30.240Z,980.00
2018-05-18T06:10:30.161Z,988.00
2018-05-18T06:11:30.068Z,988.00
2018-05-18T06:12:29.995Z,992.00
2018-05-18T06:13:29.912Z,992.00
2018-05-18T06:14:29.837Z,992.00
2018-05-18T06:15:29.775Z,996.00
2018-05-18T06:16:29.687Z,1004.00
2018-05-18T06:17:29.605Z,1008.00
2018-05-18T06:18:29.524Z,1016.00
2018-05-18T06:19:29.500Z,1016.00
2018-05-18T06:20:29.389Z,1016.00
2018-05-18T06:21:29.305Z,1012.00
2018-05-18T06:22:29.230Z,1012.00
2018-05-18T06:23:29.136Z,1020.00
2018-05-18T06:24:29.060Z,1024.00
2018-05-18T06:25:28.984Z,1024.00
2018-05-18T06:26:28.923Z,1032.00
2018-05-18T06:27:28.835Z,1028.00
2018-05-18T06:28:28.752Z,1032.00
2018-05-18T06:29:28.672Z,1032.00
2018-05-18T06:30:28.593Z,1028.00
2018-05-18T06:31:28.535Z,1028.00
2018-05-18T06:32:28.460Z,1032.00
2018-05-18T06:33:28.363Z,1044.00
2018-05-18T06:34:28.289Z,1056.00
2018-05-18T06:35:28.205Z,1072.00
2018-05-18T06:36:28.131Z,1084.00
2018-05-18T06:37:28.051Z,1096.00
2018-05-18T06:38:27.996Z,1100.00
2018-05-18T06:39:27.901Z,1108.00
2018-05-18T06:40:27.822Z,1120.00
2018-05-18T06:41:27.741Z,1140.00
2018-05-18T06:42:27.684Z,1160.00
2018-05-18T06:43:27.602Z,1180.00
2018-05-18T06:44:27.506Z,1196.00
2018-05-18T06:45:27.431Z,1216.00
2018-05-18T06:46:27.351Z,1252.00
2018-05-18T06:47:27.273Z,1448.00
2018-05-18T06:48:27.198Z,1588.00
2018-05-18T06:49:27.143Z,1608.00
2018-05-18T06:50:27.043Z,2180.00
2018-05-18T06:51:26.966Z,2080.00
2018-05-18T06:52:26.965Z,1704.00
2018-05-18T06:53:26.809Z,1792.00
2018-05-18T06:54:26.731Z,2232.00
2018-05-18T06:55:26.656Z,1620.00
2018-05-18T06:56:26.575Z,1720.00
2018-05-18T06:57:26.501Z,2260.00
2018-05-18T06:58:26.423Z,2336.00
2018-05-18T06:59:26.347Z,2336.00
2018-05-18T07:00:26.271Z,2332.00
2018-05-18T07:01:26.203Z,2292.00
2018-05-18T07:02:26.115Z,2280.00
2018-05-18T07:03:26.035Z,2300.00
2018-05-18T07:04:25.959Z,2296.00
2018-05-18T07:05:25.882Z,2304.00
2018-05-18T07:06:25.819Z,2124.00
2018-05-18T07:07:25.725Z,2188.00
2018-05-18T07:08:25.650Z,2276.00
2018-05-18T07:09:25.606Z,2308.00
2018-05-18T07:10:25.516Z,2312.00
2018-05-18T07:11:25.419Z,2316.00
2018-05-18T07:12:25.358Z,2320.00
2018-05-18T07:13:25.274Z,2320.00
2018-05-18T07:14:25.192Z,2316.00
2018-05-18T07:15:25.111Z,2316.00
2018-05-18T07:16:25.117Z,2320.00
2018-05-18T07:17:24.980Z,2324.00
2018-05-18T07:18:24.880Z,2324.00
2018-05-18T07:19:24.805Z,2332.00
2018-05-18T07:20:24.727Z,2336.00
2018-05-18T07:21:24.656Z,2336.00
2018-05-18T07:22:24.571Z,2344.00
2018-05-18T07:23:24.509Z,2344.00
2018-05-18T07:24:24.419Z,2340.00
2018-05-18T07:25:24.343Z,2336.00
2018-05-18T07:26:24.266Z,2340.00
2018-05-18T07:27:24.192Z,2336.00
2018-05-18T07:28:24.115Z,2336.00
2018-05-18T07:29:24.046Z,2332.00
2018-05-18T07:30:23.958Z,2336.00
2018-05-18T07:31:23.883Z,2340.00
2018-05-18T07:32:23.823Z,2336.00
2018-05-18T07:33:23.754Z,2336.00
2018-05-18T07:34:23.672Z,2336.00
2018-05-18T07:35:23.679Z,2332.00
2018-05-18T07:36:23.498Z,2336.00
2018-05-18T07:37:23.425Z,2336.00
2018-05-18T07:38:23.347Z,2340.00
2018-05-18T07:39:23.272Z,2344.00
2018-05-18T07:40:23.195Z,2348.00
2018-05-18T07:41:23.121Z,2344.00
2018-05-18T07:42:23.041Z,2344.00
2018-05-18T07:43:22.967Z,2344.00
2018-05-18T07:44:22.891Z,2340.00
2018-05-18T07:45:22.828Z,2340.00
2018-05-18T07:46:22.738Z,2336.00
2018-05-18T07:47:22.661Z,2336.00
2018-05-18T07:48:22.584Z,2336.00
2018-05-18T07:49:22.510Z,2332.00
2018-05-18T07:50:22.433Z,2332.00
2018-05-18T07:51:22.356Z,2324.00
2018-05-18T07:52:22.280Z,2324.00
2018-05-18T07:53:22.280Z,2320.00
2018-05-18T07:54:22.143Z,2288.00
2018-05-18T07:55:22.053Z,2320.00
2018-05-18T07:56:21.998Z,2308.00
2018-05-18T07:57:21.901Z,2308.00
2018-05-18T07:58:21.827Z,2312.00
2018-05-18T07:59:21.811Z,2316.00
2018-05-18T08:00:21.677Z,2324.00
2018-05-18T08:01:21.598Z,2320.00
2018-05-18T08:02:21.522Z,2324.00
2018-05-18T08:03:21.445Z,2324.00
2018-05-18T08:04:21.370Z,2324.00
2018-05-18T08:05:21.296Z,2324.00
2018-05-18T08:06:21.282Z,2328.00
2018-05-18T08:07:21.144Z,2324.00
2018-05-18T08:08:21.069Z,2328.00
2018-05-18T08:09:21.020Z,2316.00
2018-05-18T08:10:20.927Z,2320.00
2018-05-18T08:11:20.860Z,2312.00
2018-05-18T08:12:20.772Z,2312.00
2018-05-18T08:13:20.691Z,2308.00
2018-05-18T08:14:20.615Z,2308.00
2018-05-18T08:15:20.542Z,2308.00
2018-05-18T08:16:20.481Z,2308.00
2018-05-18T08:17:20.389Z,2312.00
2018-05-18T08:18:20.314Z,2316.00
2018-05-18T08:19:20.236Z,2324.00
2018-05-18T08:20:20.165Z,2332.00
2018-05-18T08:21:20.106Z,2352.00
2018-05-18T08:22:20.011Z,2344.00
2018-05-18T08:23:19.936Z,2336.00
2018-05-18T08:24:19.862Z,2336.00
2018-05-18T08:25:19.786Z,2336.00
2018-05-18T08:26:19.713Z,2332.00
2018-05-18T08:27:19.634Z,2328.00
2018-05-18T08:28:19.563Z,2364.00
2018-05-18T08:29:19.486Z,2348.00
2018-05-18T08:30:19.409Z,2352.00
2018-05-18T08:31:19.336Z,2352.00
2018-05-18T08:32:19.259Z,2248.00
2018-05-18T08:33:19.185Z,2300.00
2018-05-18T08:34:19.128Z,2004.00
2018-05-18T08:35:19.033Z,1736.00
2018-05-18T08:36:18.984Z,1632.00
2018-05-18T08:37:18.886Z,1628.00
2018-05-18T08:38:18.819Z,1736.00
2018-05-18T08:39:18.736Z,1724.00
2018-05-18T08:40:18.660Z,1872.00
2018-05-18T08:41:18.593Z,2208.00
2018-05-18T08:42:18.510Z,2368.00
2018-05-18T08:43:18.434Z,2384.00
2018-05-18T08:44:18.388Z,2420.00
2018-05-18T08:45:18.284Z,2460.00
2018-05-18T08:46:18.215Z,2436.00
2018-05-18T08:47:18.134Z,2396.00
2018-05-18T08:48:18.059Z,2412.00
2018-05-18T08:49:17.983Z,2412.00
2018-05-18T08:50:17.991Z,2300.00
2018-05-18T08:51:17.836Z,2328.00
2018-05-18T08:52:17.759Z,2544.00
2018-05-18T08:53:17.687Z,2648.00
2018-05-18T08:54:17.621Z,2616.00
2018-05-18T08:55:17.535Z,2540.00
2018-05-18T08:56:17.482Z,2492.00
2018-05-18T08:57:17.387Z,2480.00
2018-05-18T08:58:17.311Z,2480.00
2018-05-18T08:59:17.242Z,2476.00
2018-05-18T09:00:17.184Z,2468.00
2018-05-18T09:01:17.087Z,2476.00
2018-05-18T09:02:17.013Z,2472.00
2018-05-18T09:03:16.938Z,2456.00
2018-05-18T09:04:16.862Z,2456.00
2018-05-18T09:05:16.794Z,2456.00
2018-05-18T09:06:16.716Z,2448.00
2018-05-18T09:07:16.647Z,2432.00
2018-05-18T09:08:16.564Z,2448.00
2018-05-18T09:09:16.528Z,2492.00
2018-05-18T09:10:16.416Z,2552.00
2018-05-18T09:11:16.351Z,2632.00
2018-05-18T09:12:16.268Z,2692.00
2018-05-18T09:13:16.191Z,2696.00
2018-05-18T09:14:16.161Z,2792.00
2018-05-18T09:15:16.047Z,2812.00
2018-05-18T09:16:15.974Z,2744.00
2018-05-18T09:17:15.895Z,2788.00
2018-05-18T09:18:15.819Z,2744.00
2018-05-18T09:19:15.744Z,2732.00
2018-05-18T09:20:15.673Z,2756.00
2018-05-18T09:21:15.603Z,2796.00
2018-05-18T09:22:15.524Z,2888.00
2018-05-18T09:23:15.451Z,2988.00
2018-05-18T09:24:15.374Z,3016.00
2018-05-18T09:25:15.301Z,2900.00
2018-05-18T09:26:15.225Z,2740.00
2018-05-18T09:27:15.151Z,2680.00
2018-05-18T09:28:15.078Z,2632.00
2018-05-18T09:29:15.005Z,2636.00
2018-05-18T09:30:14.939Z,2636.00
2018-05-18T09:31:14.855Z,2640.00
2018-05-18T09:32:14.784Z,2656.00
2018-05-18T09:33:14.709Z,2680.00
2018-05-18T09:34:14.712Z,2708.00
2018-05-18T09:35:14.558Z,2752.00
2018-05-18T09:36:14.485Z,2800.00
2018-05-18T09:37:14.413Z,2864.00
2018-05-18T09:38:14.337Z,2912.00
2018-05-18T09:39:14.272Z,2964.00
2018-05-18T09:40:14.206Z,2980.00
2018-05-18T09:41:14.114Z,2840.00
2018-05-18T09:42:14.041Z,2748.00
2018-05-18T09:43:13.966Z,2708.00
2018-05-18T09:44:13.922Z,2704.00
2018-05-18T09:45:13.874Z,2672.00
2018-05-18T09:46:13.746Z,2632.00
2018-05-18T09:47:13.673Z,2628.00
2018-05-18T09:48:13.598Z,2628.00
2018-05-18T09:49:13.525Z,2636.00
2018-05-18T09:50:13.450Z,2652.00
2018-05-18T09:51:13.377Z,2708.00
2018-05-18T09:52:13.304Z,2720.00
2018-05-18T09:53:13.759Z,2732.00
2018-05-18T09:54:13.175Z,2732.00
2018-05-18T09:55:13.353Z,2648.00
2018-05-18T09:56:13.008Z,2736.00
2018-05-18T09:57:12.935Z,2356.00
2018-05-18T09:58:12.875Z,2804.00
2018-05-18T09:59:12.785Z,2792.00
2018-05-18T10:00:12.710Z,2788.00
2018-05-18T10:01:12.638Z,2816.00
2018-05-18T10:02:12.589Z,2832.00
2018-05-18T10:03:12.493Z,2824.00
2018-05-18T10:04:12.476Z,2820.00
2018-05-18T10:05:12.345Z,2824.00
2018-05-18T10:06:12.270Z,2816.00
2018-05-18T10:07:12.197Z,2804.00
2018-05-18T10:08:12.126Z,2804.00
2018-05-18T10:09:12.059Z,2808.00
2018-05-18T10:10:11.981Z,2808.00
2018-05-18T10:11:11.968Z,2820.00
2018-05-18T10:12:11.828Z,2820.00
2018-05-18T10:13:11.755Z,2828.00
2018-05-18T10:14:11.680Z,2848.00
2018-05-18T10:15:11.605Z,2868.00
2018-05-18T10:16:11.534Z,2876.00
2018-05-18T10:17:11.459Z,2892.00
2018-05-18T10:18:11.397Z,2900.00
2018-05-18T10:19:11.310Z,2916.00
2018-05-18T10:20:11.238Z,2940.00
2018-05-18T10:21:11.178Z,2952.00
2018-05-18T10:22:11.094Z,2988.00
2018-05-18T10:23:11.018Z,3012.00
2018-05-18T10:24:10.943Z,3036.00
2018-05-18T10:25:10.870Z,3064.00
2018-05-18T10:26:10.815Z,3088.00
2018-05-18T10:27:10.723Z,3136.00
2018-05-18T10:28:10.647Z,3164.00
2018-05-18T10:29:10.590Z,3188.00
2018-05-18T10:30:10.502Z,3240.00
2018-05-18T10:31:10.430Z,3312.00
2018-05-18T10:32:10.354Z,3396.00
2018-05-18T10:33:10.280Z,3392.00
2018-05-18T10:34:10.229Z,3432.00
2018-05-18T10:35:10.134Z,3480.00
2018-05-18T10:36:10.074Z,3500.00
2018-05-18T10:37:10.016Z,3504.00
2018-05-18T10:38:09.919Z,3528.00
2018-05-18T10:39:09.841Z,3520.00
2018-05-18T10:40:09.770Z,3532.00
2018-05-18T10:41:09.709Z,3592.00
2018-05-18T10:42:09.622Z,3632.00
2018-05-18T10:43:09.549Z,3640.00
2018-05-18T10:44:09.475Z,3684.00
2018-05-18T10:45:09.419Z,3716.00
2018-05-18T10:46:09.400Z,3732.00
2018-05-18T10:47:09.256Z,3732.00
2018-05-18T10:48:09.182Z,3736.00
2018-05-18T10:49:09.109Z,3756.00
2018-05-18T10:50:09.040Z,3788.00
2018-05-18T10:51:08.961Z,3800.00
2018-05-18T10:52:08.891Z,3816.00
2018-05-18T10:53:08.907Z,3840.00
2018-05-18T10:54:08.744Z,3860.00
2018-05-18T10:55:08.673Z,3888.00
2018-05-18T10:56:08.599Z,3892.00
2018-05-18T10:57:08.526Z,3904.00
2018-05-18T10:58:08.467Z,3908.00
2018-05-18T10:59:08.380Z,3936.00
2018-05-18T11:00:08.308Z,3960.00
2018-05-18T11:01:08.248Z,3960.00
2018-05-18T11:02:08.168Z,3976.00
2018-05-18T11:03:08.090Z,3964.00
2018-05-18T11:04:08.023Z,3988.00
2018-05-18T11:05:07.950Z,4024.00
2018-05-18T11:06:07.872Z,4052.00
2018-05-18T11:07:07.840Z,4084.00
2018-05-18T11:08:07.728Z,4132.00
2018-05-18T11:09:07.674Z,4164.00
2018-05-18T11:10:07.593Z,4180.00
2018-05-18T11:11:07.512Z,4188.00
2018-05-18T11:12:07.458Z,4224.00
2018-05-18T11:13:07.366Z,4248.00
2018-05-18T11:14:07.316Z,4316.00
2018-05-18T11:15:07.219Z,4320.00
2018-05-18T11:16:07.149Z,4384.00
2018-05-18T11:17:07.076Z,4428.00
2018-05-18T11:18:07.002Z,4476.00
2018-05-18T11:19:06.951Z,4504.00
2018-05-18T11:20:06.888Z,4516.00
2018-05-18T11:21:06.785Z,4552.00
2018-05-18T11:22:06.717Z,4632.00
2018-05-18T11:23:06.643Z,4548.00
2018-05-18T11:24:06.571Z,4576.00
2018-05-18T11:25:06.733Z,3752.00
2018-05-18T11:26:06.428Z,4620.00
2018-05-18T11:27:06.356Z,4612.00
2018-05-18T11:28:06.284Z,4564.00
2018-05-18T11:29:06.213Z,4556.00
2018-05-18T11:30:06.136Z,4540.00
2018-05-18T11:31:06.080Z,4548.00
2018-05-18T11:32:05.996Z,4552.00
2018-05-18T11:33:05.926Z,4580.00
2018-05-18T11:34:05.858Z,4592.00
2018-05-18T11:35:05.779Z,4424.00
2018-05-18T11:36:05.715Z,2444.00
2018-05-18T11:37:05.652Z,4392.00
2018-05-18T11:38:05.563Z,4696.00
2018-05-18T11:39:05.565Z,4720.00
2018-05-18T11:40:05.419Z,4748.00
2018-05-18T11:41:05.350Z,4488.00
2018-05-18T11:42:05.292Z,4740.00
2018-05-18T11:43:05.206Z,4912.00
2018-05-18T11:44:05.135Z,4868.00
2018-05-18T11:45:05.065Z,4812.00
2018-05-18T11:46:04.992Z,4408.00
2018-05-18T11:47:04.922Z,4888.00
2018-05-18T11:48:04.913Z,4928.00
2018-05-18T11:49:04.781Z,4608.00
2018-05-18T11:50:04.710Z,4912.00
2018-05-18T11:51:04.635Z,4840.00
2018-05-18T11:52:04.566Z,4936.00
2018-05-18T11:53:04.495Z,4852.00
2018-05-18T11:54:04.494Z,4936.00
2018-05-18T11:55:04.352Z,4924.00
2018-05-18T11:56:04.291Z,4916.00
2018-05-18T11:57:04.226Z,4880.00
2018-05-18T11:58:04.139Z,4708.00
2018-05-18T11:59:04.069Z,4944.00
2018-05-18T12:00:03.998Z,4772.00
2018-05-18T12:01:03.927Z,4996.00
2018-05-18T12:02:03.859Z,4792.00
2018-05-18T12:03:03.784Z,4808.00
2018-05-18T12:04:03.715Z,4864.00
2018-05-18T12:05:03.646Z,4956.00
2018-05-18T12:06:03.574Z,5136.00
2018-05-18T12:07:03.501Z,5148.00
2018-05-18T12:08:03.442Z,5152.00
2018-05-18T12:09:03.364Z,5156.00
2018-05-18T12:10:03.293Z,4908.00
2018-05-18T12:11:03.219Z,5200.00
2018-05-18T12:12:03.148Z,5240.00
2018-05-18T12:13:03.083Z,5276.00
2018-05-18T12:14:03.011Z,5308.00
2018-05-18T12:15:02.939Z,5328.00
2018-05-18T12:16:02.868Z,5344.00
2018-05-18T12:17:02.800Z,5372.00
2018-05-18T12:18:02.726Z,5424.00
2018-05-18T12:19:02.656Z,5472.00
2018-05-18T12:20:02.584Z,5488.00
2018-05-18T12:21:02.522Z,5532.00
2018-05-18T12:22:02.446Z,5556.00
2018-05-18T12:23:02.374Z,5600.00
2018-05-18T12:24:02.321Z,5604.00
2018-05-18T12:25:02.233Z,5616.00
2018-05-18T12:26:02.252Z,5644.00
2018-05-18T12:27:02.094Z,5676.00
2018-05-18T12:28:02.025Z,5704.00
2018-05-18T12:29:01.955Z,5724.00
2018-05-18T12:30:01.884Z,5752.00